sensor_id;sensor_type;location;lat;lon;timestamp;pressure;altitude;pressure_sealevel;temperature;humidity
12969;BME280;6549;53.128;8.182;2023-04-22T00:02:52;100838.56;;;12.34;93.56
12969;BME280;6549;53.128;8.182;2023-04-22T00:05:52;100833.81;;;12.45;92.33
12969;BME280;6549;53.128;8.182;2023-04-22T00:08:53;100844.81;;;12.45;92.40
12969;BME280;6549;53.128;8.182;2023-04-22T00:11:53;100848.38;;;12.38;93.12
12969;BME280;6549;53.128;8.182;2023-04-22T00:14:54;100835.00;;;12.33;93.93
12969;BME280;6549;53.128;8.182;2023-04-22T00:17:57;100831.47;;;12.33;95.08
12969;BME280;6549;53.128;8.182;2023-04-22T00:20:57;100833.81;;;12.24;97.65
12969;BME280;6549;53.128;8.182;2023-04-22T00:23:57;100827.53;;;12.20;100.00
12969;BME280;6549;53.128;8.182;2023-04-22T00:26:58;100805.50;;;12.16;100.00
12969;BME280;6549;53.128;8.182;2023-04-22T00:29:58;100809.03;;;12.13;100.00
12969;BME280;6549;53.128;8.182;2023-04-22T00:32:58;100815.72;;;12.30;95.21
12969;BME280;6549;53.128;8.182;2023-04-22T00:35:59;100804.31;;;12.28;95.91
12969;BME280;6549;53.128;8.182;2023-04-22T00:38:59;100797.63;;;12.29;95.60
12969;BME280;6549;53.128;8.182;2023-04-22T00:42:00;100792.88;;;12.33;95.92
12969;BME280;6549;53.128;8.182;2023-04-22T00:45:01;100794.47;;;12.30;94.57
12969;BME280;6549;53.128;8.182;2023-04-22T00:48:01;100799.16;;;12.47;92.59
12969;BME280;6549;53.128;8.182;2023-04-22T00:51:02;100784.22;;;12.41;92.80
12969;BME280;6549;53.128;8.182;2023-04-22T00:54:03;100791.31;;;12.39;93.76
12969;BME280;6549;53.128;8.182;2023-04-22T00:57:05;100794.47;;;12.34;94.88
12969;BME280;6549;53.128;8.182;2023-04-22T01:00:05;100796.44;;;12.30;95.56
12969;BME280;6549;53.128;8.182;2023-04-22T01:03:06;100787.41;;;12.26;97.35
12969;BME280;6549;53.128;8.182;2023-04-22T01:06:07;100792.09;;;12.22;97.26
12969;BME280;6549;53.128;8.182;2023-04-22T01:09:07;100786.22;;;12.16;98.03
12969;BME280;6549;53.128;8.182;2023-04-22T01:12:08;100776.78;;;12.06;100.00
12969;BME280;6549;53.128;8.182;2023-04-22T01:15:08;100774.41;;;12.08;99.74
12969;BME280;6549;53.128;8.182;2023-04-22T01:18:09;100761.41;;;12.09;99.19
12969;BME280;6549;53.128;8.182;2023-04-22T01:21:10;100753.94;;;12.17;99.10
12969;BME280;6549;53.128;8.182;2023-04-22T01:24:11;100761.81;;;12.04;99.78
12969;BME280;6549;53.128;8.182;2023-04-22T01:27:11;100755.94;;;11.98;100.00
12969;BME280;6549;53.128;8.182;2023-04-22T01:30:12;100756.69;;;12.09;100.00
12969;BME280;6549;53.128;8.182;2023-04-22T01:33:14;100750.00;;;12.21;99.41
12969;BME280;6549;53.128;8.182;2023-04-22T01:36:15;100746.47;;;12.21;100.00
12969;BME280;6549;53.128;8.182;2023-04-22T01:39:16;100745.69;;;12.09;100.00
12969;BME280;6549;53.128;8.182;2023-04-22T01:42:17;100746.09;;;11.97;100.00
12969;BME280;6549;53.128;8.182;2023-04-22T01:45:17;100741.38;;;12.01;100.00
12969;BME280;6549;53.128;8.182;2023-04-22T01:48:17;100740.59;;;11.94;100.00
12969;BME280;6549;53.128;8.182;2023-04-22T01:51:18;100739.81;;;11.79;100.00
12969;BME280;6549;53.128;8.182;2023-04-22T01:54:22;100740.19;;;11.74;100.00
12969;BME280;6549;53.128;8.182;2023-04-22T01:57:23;100735.09;;;11.76;100.00
12969;BME280;6549;53.128;8.182;2023-04-22T02:00:23;100736.63;;;11.70;100.00
12969;BME280;6549;53.128;8.182;2023-04-22T02:03:23;100737.47;;;11.81;100.00
12969;BME280;6549;53.128;8.182;2023-04-22T02:06:24;100729.97;;;11.75;100.00
12969;BME280;6549;53.128;8.182;2023-04-22T02:09:24;100724.88;;;11.84;100.00
12969;BME280;6549;53.128;8.182;2023-04-22T02:12:24;100722.13;;;11.80;100.00
12969;BME280;6549;53.128;8.182;2023-04-22T02:15:25;100714.25;;;11.75;100.00
12969;BME280;6549;53.128;8.182;2023-04-22T02:18:25;100718.13;;;11.60;100.00
12969;BME280;6549;53.128;8.182;2023-04-22T02:21:28;100718.56;;;11.55;100.00
12969;BME280;6549;53.128;8.182;2023-04-22T02:24:30;100709.13;;;11.45;100.00
12969;BME280;6549;53.128;8.182;2023-04-22T02:27:30;100710.69;;;11.36;100.00
12969;BME280;6549;53.128;8.182;2023-04-22T02:30:31;100699.66;;;11.36;100.00
12969;BME280;6549;53.128;8.182;2023-04-22T02:33:31;100696.91;;;11.36;100.00
12969;BME280;6549;53.128;8.182;2023-04-22T02:36:31;100703.19;;;11.18;100.00
12969;BME280;6549;53.128;8.182;2023-04-22T02:39:33;100698.06;;;11.17;100.00
12969;BME280;6549;53.128;8.182;2023-04-22T02:42:34;100703.19;;;11.22;100.00
12969;BME280;6549;53.128;8.182;2023-04-22T02:45:34;100695.69;;;11.15;100.00
12969;BME280;6549;53.128;8.182;2023-04-22T02:48:35;100684.69;;;11.08;100.00
12969;BME280;6549;53.128;8.182;2023-04-22T02:51:37;100692.16;;;10.97;100.00
12969;BME280;6549;53.128;8.182;2023-04-22T02:54:37;100689.41;;;10.97;100.00
12969;BME280;6549;53.128;8.182;2023-04-22T02:57:37;100678.38;;;10.83;100.00
12969;BME280;6549;53.128;8.182;2023-04-22T03:00:38;100681.50;;;10.85;100.00
12969;BME280;6549;53.128;8.182;2023-04-22T03:03:38;100679.50;;;10.68;100.00
12969;BME280;6549;53.128;8.182;2023-04-22T03:06:38;100670.06;;;10.69;100.00
12969;BME280;6549;53.128;8.182;2023-04-22T03:09:39;100667.31;;;10.69;100.00
12969;BME280;6549;53.128;8.182;2023-04-22T03:12:40;100669.22;;;10.58;100.00
12969;BME280;6549;53.128;8.182;2023-04-22T03:15:42;100664.13;;;10.53;100.00
12969;BME280;6549;53.128;8.182;2023-04-22T03:18:43;100662.13;;;10.43;100.00
12969;BME280;6549;53.128;8.182;2023-04-22T03:21:43;100662.19;;;10.60;100.00
12969;BME280;6549;53.128;8.182;2023-04-22T03:24:44;100661.75;;;10.44;100.00
12969;BME280;6549;53.128;8.182;2023-04-22T03:27:44;100655.03;;;10.34;100.00
12969;BME280;6549;53.128;8.182;2023-04-22T03:30:44;100656.53;;;10.21;100.00
12969;BME280;6549;53.128;8.182;2023-04-22T03:33:45;100658.09;;;10.22;100.00
12969;BME280;6549;53.128;8.182;2023-04-22T03:36:45;100657.72;;;10.20;100.00
12969;BME280;6549;53.128;8.182;2023-04-22T03:39:46;100658.09;;;10.22;100.00
12969;BME280;6549;53.128;8.182;2023-04-22T03:42:46;100657.66;;;10.13;100.00
12969;BME280;6549;53.128;8.182;2023-04-22T03:45:46;100656.94;;;10.23;100.00
12969;BME280;6549;53.128;8.182;2023-04-22T03:48:46;100650.59;;;10.12;100.00
12969;BME280;6549;53.128;8.182;2023-04-22T03:51:47;100643.06;;;9.99;100.00
12969;BME280;6549;53.128;8.182;2023-04-22T03:54:47;100643.44;;;9.97;100.00
12969;BME280;6549;53.128;8.182;2023-04-22T03:57:47;100635.19;;;9.93;100.00
12969;BME280;6549;53.128;8.182;2023-04-22T04:01:11;100636.84;;;10.09;100.00
12969;BME280;6549;53.128;8.182;2023-04-22T04:04:12;100635.22;;;10.01;100.00
12969;BME280;6549;53.128;8.182;2023-04-22T04:07:12;100643.84;;;9.99;100.00
12969;BME280;6549;53.128;8.182;2023-04-22T04:10:12;100636.13;;;10.15;100.00
12969;BME280;6549;53.128;8.182;2023-04-22T04:13:13;100638.38;;;10.06;100.00
12969;BME280;6549;53.128;8.182;2023-04-22T04:16:13;100630.13;;;9.99;100.00
12969;BME280;6549;53.128;8.182;2023-04-22T04:19:14;100639.50;;;9.95;100.00
12969;BME280;6549;53.128;8.182;2023-04-22T04:22:14;100633.59;;;9.92;100.00
12969;BME280;6549;53.128;8.182;2023-04-22T04:25:14;100634.41;;;9.93;100.00
12969;BME280;6549;53.128;8.182;2023-04-22T04:28:15;100631.63;;;9.86;100.00
12969;BME280;6549;53.128;8.182;2023-04-22T04:31:16;100624.94;;;9.83;100.00
12969;BME280;6549;53.128;8.182;2023-04-22T04:34:17;100631.53;;;9.72;100.00
12969;BME280;6549;53.128;8.182;2023-04-22T04:37:18;100617.81;;;9.72;100.00
12969;BME280;6549;53.128;8.182;2023-04-22T04:40:18;100628.41;;;9.73;100.00
12969;BME280;6549;53.128;8.182;2023-04-22T04:43:19;100626.03;;;9.72;100.00
12969;BME280;6549;53.128;8.182;2023-04-22T04:46:19;100626.03;;;9.72;100.00
12969;BME280;6549;53.128;8.182;2023-04-22T04:49:20;100620.53;;;9.68;100.00
12969;BME280;6549;53.128;8.182;2023-04-22T04:52:20;100620.19;;;9.77;100.00
12969;BME280;6549;53.128;8.182;2023-04-22T04:55:23;100617.47;;;9.84;100.00
12969;BME280;6549;53.128;8.182;2023-04-22T04:58:23;100607.72;;;9.86;100.00
12969;BME280;6549;53.128;8.182;2023-04-22T05:01:23;100609.72;;;9.97;100.00
12969;BME280;6549;53.128;8.182;2023-04-22T05:04:24;100611.34;;;10.12;100.00
12969;BME280;6549;53.128;8.182;2023-04-22T05:07:24;100613.44;;;10.32;100.00
12969;BME280;6549;53.128;8.182;2023-04-22T05:10:25;100608.41;;;10.56;100.00
12969;BME280;6549;53.128;8.182;2023-04-22T05:13:25;100613.94;;;10.77;100.00
12969;BME280;6549;53.128;8.182;2023-04-22T05:16:27;100611.63;;;11.07;100.00
12969;BME280;6549;53.128;8.182;2023-04-22T05:19:27;100610.44;;;11.44;100.00
12969;BME280;6549;53.128;8.182;2023-04-22T05:22:28;100611.22;;;11.58;100.00
12969;BME280;6549;53.128;8.182;2023-04-22T05:25:28;100615.56;;;11.77;100.00
12969;BME280;6549;53.128;8.182;2023-04-22T05:28:28;100611.53;;;11.96;100.00
12969;BME280;6549;53.128;8.182;2023-04-22T05:31:29;100606.88;;;11.79;100.00
12969;BME280;6549;53.128;8.182;2023-04-22T05:34:29;100616.69;;;11.90;100.00
12969;BME280;6549;53.128;8.182;2023-04-22T05:37:30;100625.34;;;11.92;100.00
12969;BME280;6549;53.128;8.182;2023-04-22T05:40:31;100620.63;;;11.89;100.00
12969;BME280;6549;53.128;8.182;2023-04-22T05:43:31;100634.72;;;12.09;100.00
12969;BME280;6549;53.128;8.182;2023-04-22T05:46:31;100637.81;;;12.22;100.00
12969;BME280;6549;53.128;8.182;2023-04-22T05:49:31;100645.69;;;12.27;100.00
12969;BME280;6549;53.128;8.182;2023-04-22T05:52:32;100646.03;;;12.36;100.00
12969;BME280;6549;53.128;8.182;2023-04-22T05:55:33;100646.41;;;12.41;100.00
12969;BME280;6549;53.128;8.182;2023-04-22T05:58:33;100642.09;;;12.37;100.00
12969;BME280;6549;53.128;8.182;2023-04-22T06:01:35;100644.06;;;12.40;100.00
12969;BME280;6549;53.128;8.182;2023-04-22T06:04:36;100658.25;;;12.35;100.00
12969;BME280;6549;53.128;8.182;2023-04-22T06:07:36;100653.50;;;12.42;100.00
12969;BME280;6549;53.128;8.182;2023-04-22T06:10:36;100648.00;;;12.42;100.00
12969;BME280;6549;53.128;8.182;2023-04-22T06:13:37;100649.56;;;12.47;100.00
12969;BME280;6549;53.128;8.182;2023-04-22T06:16:37;100647.47;;;12.69;100.00
12969;BME280;6549;53.128;8.182;2023-04-22T06:19:38;100641.50;;;12.81;100.00
12969;BME280;6549;53.128;8.182;2023-04-22T06:22:39;100627.47;;;13.16;100.00
12969;BME280;6549;53.128;8.182;2023-04-22T06:25:42;100636.69;;;13.88;100.00
12969;BME280;6549;53.128;8.182;2023-04-22T06:28:43;100631.72;;;14.44;100.00
12969;BME280;6549;53.128;8.182;2023-04-22T06:31:43;100615.13;;;14.74;100.00
12969;BME280;6549;53.128;8.182;2023-04-22T06:34:43;100628.34;;;14.90;100.00
12969;BME280;6549;53.128;8.182;2023-04-22T06:37:43;100625.00;;;14.75;100.00
12969;BME280;6549;53.128;8.182;2023-04-22T06:40:44;100619.25;;;14.62;100.00
12969;BME280;6549;53.128;8.182;2023-04-22T06:43:44;100615.56;;;14.72;100.00
12969;BME280;6549;53.128;8.182;2023-04-22T06:46:45;100614.72;;;14.75;100.00
12969;BME280;6549;53.128;8.182;2023-04-22T06:49:45;100617.34;;;14.86;100.00
12969;BME280;6549;53.128;8.182;2023-04-22T06:52:46;100609.44;;;14.84;100.00
12969;BME280;6549;53.128;8.182;2023-04-22T06:55:46;100613.31;;;14.91;100.00
12969;BME280;6549;53.128;8.182;2023-04-22T06:58:47;100616.41;;;15.19;100.00
12969;BME280;6549;53.128;8.182;2023-04-22T07:01:47;100612.59;;;15.60;100.00
12969;BME280;6549;53.128;8.182;2023-04-22T07:04:47;100618.19;;;15.80;100.00
12969;BME280;6549;53.128;8.182;2023-04-22T07:07:48;100615.34;;;16.03;96.93
12969;BME280;6549;53.128;8.182;2023-04-22T07:10:48;100615.34;;;16.03;98.30
12969;BME280;6549;53.128;8.182;2023-04-22T07:13:48;100612.56;;;16.03;97.93
12969;BME280;6549;53.128;8.182;2023-04-22T07:16:49;100608.44;;;16.31;97.44
12969;BME280;6549;53.128;8.182;2023-04-22T07:19:49;100616.13;;;16.63;96.68
12969;BME280;6549;53.128;8.182;2023-04-22T07:22:50;100623.66;;;16.62;92.21
12969;BME280;6549;53.128;8.182;2023-04-22T07:25:51;100631.34;;;16.54;93.71
12969;BME280;6549;53.128;8.182;2023-04-22T07:28:52;100637.66;;;16.55;93.31
12969;BME280;6549;53.128;8.182;2023-04-22T07:31:52;100633.09;;;16.65;93.80
12969;BME280;6549;53.128;8.182;2023-04-22T07:34:52;100631.19;;;17.14;97.95
12969;BME280;6549;53.128;8.182;2023-04-22T07:37:53;100623.66;;;17.46;91.07
12969;BME280;6549;53.128;8.182;2023-04-22T07:40:54;100627.09;;;17.50;88.33
12969;BME280;6549;53.128;8.182;2023-04-22T07:43:54;100632.13;;;17.72;88.87
12969;BME280;6549;53.128;8.182;2023-04-22T07:46:55;100633.66;;;17.89;87.50
12969;BME280;6549;53.128;8.182;2023-04-22T07:49:55;100633.81;;;17.98;84.64
12969;BME280;6549;53.128;8.182;2023-04-22T07:52:55;100633.44;;;17.83;84.12
12969;BME280;6549;53.128;8.182;2023-04-22T07:55:56;100629.78;;;17.70;84.82
12969;BME280;6549;53.128;8.182;2023-04-22T07:58:56;100633.59;;;17.76;85.97
12969;BME280;6549;53.128;8.182;2023-04-22T08:01:56;100627.78;;;17.87;88.40
12969;BME280;6549;53.128;8.182;2023-04-22T08:04:57;100620.44;;;17.93;84.58
12969;BME280;6549;53.128;8.182;2023-04-22T08:07:57;100623.00;;;17.87;85.08
12969;BME280;6549;53.128;8.182;2023-04-22T08:10:57;100613.59;;;18.52;85.79
12969;BME280;6549;53.128;8.182;2023-04-22T08:13:57;100605.09;;;18.84;80.95
12969;BME280;6549;53.128;8.182;2023-04-22T08:16:58;100615.63;;;19.27;77.10
12969;BME280;6549;53.128;8.182;2023-04-22T08:19:58;100609.38;;;19.48;73.93
12969;BME280;6549;53.128;8.182;2023-04-22T08:22:58;100619.75;;;19.48;75.36
12969;BME280;6549;53.128;8.182;2023-04-22T08:25:59;100612.72;;;19.43;75.33
12969;BME280;6549;53.128;8.182;2023-04-22T08:29:00;100607.06;;;19.21;75.51
12969;BME280;6549;53.128;8.182;2023-04-22T08:32:00;100596.56;;;19.25;74.52
12969;BME280;6549;53.128;8.182;2023-04-22T08:35:00;100601.19;;;18.69;77.12
12969;BME280;6549;53.128;8.182;2023-04-22T08:38:01;100593.28;;;19.05;77.93
12969;BME280;6549;53.128;8.182;2023-04-22T08:41:03;100586.19;;;19.51;77.40
12969;BME280;6549;53.128;8.182;2023-04-22T08:44:05;100578.97;;;19.76;74.31
12969;BME280;6549;53.128;8.182;2023-04-22T08:47:06;100578.31;;;19.93;71.26
12969;BME280;6549;53.128;8.182;2023-04-22T08:50:07;100577.47;;;20.27;69.03
12969;BME280;6549;53.128;8.182;2023-04-22T08:53:08;100586.19;;;20.60;69.27
12969;BME280;6549;53.128;8.182;2023-04-22T08:56:11;100579.69;;;21.03;67.81
12969;BME280;6549;53.128;8.182;2023-04-22T08:59:12;100581.53;;;21.55;66.79
12969;BME280;6549;53.128;8.182;2023-04-22T09:02:19;100576.25;;;21.75;65.54
12969;BME280;6549;53.128;8.182;2023-04-22T09:05:21;100569.09;;;21.47;63.99
12969;BME280;6549;53.128;8.182;2023-04-22T09:08:23;100561.34;;;21.97;63.26
12969;BME280;6549;53.128;8.182;2023-04-22T09:11:28;100570.72;;;22.45;61.90
12969;BME280;6549;53.128;8.182;2023-04-22T09:14:29;100564.97;;;22.48;60.26
12969;BME280;6549;53.128;8.182;2023-04-22T09:17:31;100565.31;;;22.32;59.41
12969;BME280;6549;53.128;8.182;2023-04-22T09:20:32;100558.38;;;22.60;59.88
12969;BME280;6549;53.128;8.182;2023-04-22T09:23:32;100557.56;;;22.78;58.57
12969;BME280;6549;53.128;8.182;2023-04-22T09:26:32;100549.63;;;22.76;56.73
12969;BME280;6549;53.128;8.182;2023-04-22T09:29:33;100550.63;;;23.21;56.70
12969;BME280;6549;53.128;8.182;2023-04-22T09:32:33;100550.06;;;23.55;58.42
12969;BME280;6549;53.128;8.182;2023-04-22T09:35:37;100552.09;;;23.55;56.19
12969;BME280;6549;53.128;8.182;2023-04-22T09:38:37;100545.03;;;23.45;56.01
12969;BME280;6549;53.128;8.182;2023-04-22T09:41:38;100540.00;;;23.25;54.68
12969;BME280;6549;53.128;8.182;2023-04-22T09:44:39;100536.91;;;23.47;55.07
12969;BME280;6549;53.128;8.182;2023-04-22T09:47:39;100548.91;;;23.47;55.51
12969;BME280;6549;53.128;8.182;2023-04-22T09:50:44;100541.22;;;23.71;52.81
12969;BME280;6549;53.128;8.182;2023-04-22T09:53:45;100540.03;;;23.63;52.04
12969;BME280;6549;53.128;8.182;2023-04-22T09:56:55;100536.63;;;23.59;52.13
12969;BME280;6549;53.128;8.182;2023-04-22T09:59:59;100536.41;;;23.87;51.66
12969;BME280;6549;53.128;8.182;2023-04-22T10:02:59;100540.41;;;23.56;53.83
12969;BME280;6549;53.128;8.182;2023-04-22T10:06:03;100537.72;;;23.38;52.18
12969;BME280;6549;53.128;8.182;2023-04-22T10:09:03;100528.13;;;23.54;53.18
12969;BME280;6549;53.128;8.182;2023-04-22T10:12:04;100533.59;;;23.87;52.09
12969;BME280;6549;53.128;8.182;2023-04-22T10:15:04;100521.41;;;24.04;51.15
12969;BME280;6549;53.128;8.182;2023-04-22T10:18:06;100536.91;;;23.85;51.28
12969;BME280;6549;53.128;8.182;2023-04-22T10:21:07;100540.94;;;23.99;50.80
12969;BME280;6549;53.128;8.182;2023-04-22T10:24:08;100530.69;;;23.81;52.07
12969;BME280;6549;53.128;8.182;2023-04-22T10:27:13;100529.63;;;23.79;50.60
12969;BME280;6549;53.128;8.182;2023-04-22T10:30:28;100534.53;;;23.54;51.66
12969;BME280;6549;53.128;8.182;2023-04-22T10:36:34;100511.44;;;23.36;51.60
12969;BME280;6549;53.128;8.182;2023-04-22T10:39:34;100507.19;;;23.40;52.55
12969;BME280;6549;53.128;8.182;2023-04-22T10:42:34;100518.06;;;23.00;52.33
12969;BME280;6549;53.128;8.182;2023-04-22T10:45:35;100507.97;;;22.93;52.90
12969;BME280;6549;53.128;8.182;2023-04-22T10:48:51;100511.06;;;22.62;52.86
12969;BME280;6549;53.128;8.182;2023-04-22T10:51:58;100507.44;;;22.38;53.88
12969;BME280;6549;53.128;8.182;2023-04-22T10:55:00;100503.16;;;22.19;54.02
12969;BME280;6549;53.128;8.182;2023-04-22T10:58:01;100489.97;;;22.52;54.29
12969;BME280;6549;53.128;8.182;2023-04-22T11:01:01;100488.84;;;22.92;53.45
12969;BME280;6549;53.128;8.182;2023-04-22T11:04:20;100474.59;;;22.80;53.92
12969;BME280;6549;53.128;8.182;2023-04-22T11:10:30;100479.63;;;23.39;53.58
12969;BME280;6549;53.128;8.182;2023-04-22T11:13:30;100467.41;;;23.80;53.26
12969;BME280;6549;53.128;8.182;2023-04-22T11:16:30;100469.53;;;24.00;52.92
12969;BME280;6549;53.128;8.182;2023-04-22T11:19:30;100449.59;;;23.68;51.45
12969;BME280;6549;53.128;8.182;2023-04-22T11:22:34;100447.47;;;24.07;50.49
12969;BME280;6549;53.128;8.182;2023-04-22T11:25:35;100440.16;;;24.45;50.90
12969;BME280;6549;53.128;8.182;2023-04-22T11:28:43;100436.16;;;24.02;52.08
12969;BME280;6549;53.128;8.182;2023-04-22T11:31:47;100441.81;;;24.37;50.87
12969;BME280;6549;53.128;8.182;2023-04-22T11:34:50;100439.59;;;24.41;50.37
12969;BME280;6549;53.128;8.182;2023-04-22T11:37:51;100434.69;;;23.92;49.43
12969;BME280;6549;53.128;8.182;2023-04-22T11:40:53;100435.69;;;23.74;50.34
12969;BME280;6549;53.128;8.182;2023-04-22T11:43:53;100436.06;;;23.52;49.36
12969;BME280;6549;53.128;8.182;2023-04-22T11:46:55;100433.97;;;23.38;49.40
12969;BME280;6549;53.128;8.182;2023-04-22T11:49:59;100439.66;;;23.29;49.76
12969;BME280;6549;53.128;8.182;2023-04-22T11:53:04;100440.50;;;23.73;50.87
12969;BME280;6549;53.128;8.182;2023-04-22T11:56:04;100445.09;;;24.35;48.63
12969;BME280;6549;53.128;8.182;2023-04-22T11:59:06;100439.56;;;24.55;48.01
12969;BME280;6549;53.128;8.182;2023-04-22T12:02:06;100424.34;;;24.47;47.64
12969;BME280;6549;53.128;8.182;2023-04-22T12:05:10;100445.41;;;24.72;48.17
12969;BME280;6549;53.128;8.182;2023-04-22T12:08:14;100439.88;;;24.98;47.69
12969;BME280;6549;53.128;8.182;2023-04-22T12:11:15;100436.94;;;25.33;47.88
12969;BME280;6549;53.128;8.182;2023-04-22T12:14:15;100438.59;;;25.19;45.80
12969;BME280;6549;53.128;8.182;2023-04-22T12:17:15;100443.19;;;25.17;46.30
12969;BME280;6549;53.128;8.182;2023-04-22T12:20:20;100440.50;;;24.52;45.41
12969;BME280;6549;53.128;8.182;2023-04-22T12:23:21;100434.41;;;24.54;47.00
12969;BME280;6549;53.128;8.182;2023-04-22T12:26:21;100434.63;;;24.71;47.75
12969;BME280;6549;53.128;8.182;2023-04-22T12:29:29;100423.13;;;24.69;46.26
12969;BME280;6549;53.128;8.182;2023-04-22T12:32:29;100427.28;;;24.73;47.43
12969;BME280;6549;53.128;8.182;2023-04-22T12:35:29;100429.88;;;24.77;46.28
12969;BME280;6549;53.128;8.182;2023-04-22T12:38:30;100429.09;;;24.76;45.82
12969;BME280;6549;53.128;8.182;2023-04-22T12:41:30;100404.28;;;24.75;47.83
12969;BME280;6549;53.128;8.182;2023-04-22T12:44:30;100409.44;;;24.96;48.08
12969;BME280;6549;53.128;8.182;2023-04-22T12:47:31;100396.34;;;25.60;46.88
12969;BME280;6549;53.128;8.182;2023-04-22T12:50:31;100409.47;;;25.68;45.33
12969;BME280;6549;53.128;8.182;2023-04-22T12:53:31;100394.59;;;25.68;44.57
12969;BME280;6549;53.128;8.182;2023-04-22T12:56:31;100394.38;;;25.20;45.86
12969;BME280;6549;53.128;8.182;2023-04-22T12:59:32;100402.47;;;24.72;45.31
12969;BME280;6549;53.128;8.182;2023-04-22T13:02:32;100394.09;;;24.37;47.12
12969;BME280;6549;53.128;8.182;2023-04-22T13:05:32;100382.53;;;24.00;47.42
12969;BME280;6549;53.128;8.182;2023-04-22T13:08:32;100379.34;;;24.07;48.84
12969;BME280;6549;53.128;8.182;2023-04-22T13:11:33;100374.44;;;24.37;48.08
12969;BME280;6549;53.128;8.182;2023-04-22T13:14:33;100376.91;;;24.90;47.66
12969;BME280;6549;53.128;8.182;2023-04-22T13:17:33;100366.94;;;25.09;47.24
12969;BME280;6549;53.128;8.182;2023-04-22T13:20:33;100367.34;;;24.61;46.71
12969;BME280;6549;53.128;8.182;2023-04-22T13:23:34;100368.28;;;24.73;46.43
12969;BME280;6549;53.128;8.182;2023-04-22T13:26:35;100352.81;;;25.03;46.23
12969;BME280;6549;53.128;8.182;2023-04-22T13:29:35;100347.41;;;25.26;46.77
12969;BME280;6549;53.128;8.182;2023-04-22T13:32:35;100350.31;;;25.11;46.42
12969;BME280;6549;53.128;8.182;2023-04-22T13:35:37;100344.03;;;24.96;46.09
12969;BME280;6549;53.128;8.182;2023-04-22T13:38:37;100342.69;;;24.71;45.84
12969;BME280;6549;53.128;8.182;2023-04-22T13:41:38;100335.88;;;24.78;47.11
12969;BME280;6549;53.128;8.182;2023-04-22T13:44:38;100337.56;;;24.90;47.27
12969;BME280;6549;53.128;8.182;2023-04-22T13:47:38;100332.38;;;24.07;47.67
12969;BME280;6549;53.128;8.182;2023-04-22T13:50:39;100321.00;;;24.31;48.13
12969;BME280;6549;53.128;8.182;2023-04-22T13:53:41;100316.03;;;24.06;48.86
12969;BME280;6549;53.128;8.182;2023-04-22T13:56:41;100313.69;;;24.39;48.84
12969;BME280;6549;53.128;8.182;2023-04-22T13:59:42;100307.56;;;24.81;48.03
12969;BME280;6549;53.128;8.182;2023-04-22T14:02:42;100303.06;;;24.89;48.33
12969;BME280;6549;53.128;8.182;2023-04-22T14:05:42;100299.44;;;25.09;46.78
12969;BME280;6549;53.128;8.182;2023-04-22T14:08:42;100300.28;;;24.69;47.08
12969;BME280;6549;53.128;8.182;2023-04-22T14:11:43;100287.88;;;24.81;46.93
12969;BME280;6549;53.128;8.182;2023-04-22T14:14:43;100275.75;;;24.90;47.14
12969;BME280;6549;53.128;8.182;2023-04-22T14:17:44;100267.06;;;24.68;47.60
12969;BME280;6549;53.128;8.182;2023-04-22T14:20:48;100267.38;;;24.75;46.86
12969;BME280;6549;53.128;8.182;2023-04-22T14:23:48;100272.31;;;25.06;46.68
12969;BME280;6549;53.128;8.182;2023-04-22T14:26:49;100263.31;;;24.76;46.01
12969;BME280;6549;53.128;8.182;2023-04-22T14:29:51;100263.44;;;24.41;46.28
12969;BME280;6549;53.128;8.182;2023-04-22T14:32:51;100257.25;;;24.17;47.17
12969;BME280;6549;53.128;8.182;2023-04-22T14:35:51;100250.22;;;24.07;47.74
12969;BME280;6549;53.128;8.182;2023-04-22T14:38:52;100252.97;;;23.87;48.55
12969;BME280;6549;53.128;8.182;2023-04-22T14:41:52;100243.75;;;24.01;48.29
12969;BME280;6549;53.128;8.182;2023-04-22T14:47:37;100233.81;;;24.66;48.27
12969;BME280;6549;53.128;8.182;2023-04-22T14:50:37;100237.16;;;24.90;46.33
12969;BME280;6549;53.128;8.182;2023-04-22T14:53:37;100222.34;;;24.90;46.58
12969;BME280;6549;53.128;8.182;2023-04-22T14:56:38;100227.81;;;25.30;46.88
12969;BME280;6549;53.128;8.182;2023-04-22T14:59:38;100221.66;;;25.32;44.99
12969;BME280;6549;53.128;8.182;2023-04-22T15:02:38;100212.81;;;25.44;45.25
12969;BME280;6549;53.128;8.182;2023-04-22T15:05:38;100209.63;;;25.63;45.97
12969;BME280;6549;53.128;8.182;2023-04-22T15:08:39;100207.94;;;25.45;47.22
12969;BME280;6549;53.128;8.182;2023-04-22T15:11:39;100205.78;;;24.97;46.41
12969;BME280;6549;53.128;8.182;2023-04-22T15:14:39;100207.50;;;24.64;46.00
12969;BME280;6549;53.128;8.182;2023-04-22T15:17:40;100199.00;;;24.32;46.30
12969;BME280;6549;53.128;8.182;2023-04-22T15:20:40;100203.47;;;24.04;47.45
12969;BME280;6549;53.128;8.182;2023-04-22T15:23:41;100202.34;;;23.96;47.89
12969;BME280;6549;53.128;8.182;2023-04-22T15:26:41;100202.13;;;23.79;48.12
12969;BME280;6549;53.128;8.182;2023-04-22T15:29:41;100199.50;;;23.55;48.77
12969;BME280;6549;53.128;8.182;2023-04-22T15:32:45;100201.03;;;23.42;48.65
12969;BME280;6549;53.128;8.182;2023-04-22T15:44:57;100193.25;;;22.58;51.10
12969;BME280;6549;53.128;8.182;2023-04-22T15:47:57;100198.34;;;22.45;51.79
12969;BME280;6549;53.128;8.182;2023-04-22T15:50:58;100192.47;;;22.43;51.88
12969;BME280;6549;53.128;8.182;2023-04-22T15:54:51;100191.88;;;22.38;51.53
12969;BME280;6549;53.128;8.182;2023-04-22T15:57:51;100203.56;;;22.37;53.09
12969;BME280;6549;53.128;8.182;2023-04-22T16:00:51;100196.34;;;22.07;57.81
12969;BME280;6549;53.128;8.182;2023-04-22T16:03:51;100199.16;;;21.50;60.49
12969;BME280;6549;53.128;8.182;2023-04-22T16:06:52;100209.22;;;21.24;62.67
12969;BME280;6549;53.128;8.182;2023-04-22T16:09:52;100198.06;;;21.05;65.53
12969;BME280;6549;53.128;8.182;2023-04-22T16:12:52;100199.81;;;20.85;68.00
12969;BME280;6549;53.128;8.182;2023-04-22T16:15:52;100204.06;;;20.71;75.77